createdAt,value
2017-11-03T00:01:30.455Z,99.90
2017-11-03T00:03:57.538Z,99.90
2017-11-03T00:06:23.903Z,99.90
2017-11-03T00:08:50.246Z,99.90
2017-11-03T00:11:16.601Z,99.90
2017-11-03T00:13:43.699Z,99.90
2017-11-03T00:16:10.111Z,99.90
2017-11-03T00:18:36.459Z,99.90
2017-11-03T00:21:02.835Z,99.90
2017-11-03T00:23:29.915Z,99.90
2017-11-03T00:25:56.298Z,99.90
2017-11-03T00:28:22.646Z,99.90
2017-11-03T00:30:50.014Z,99.90
2017-11-03T00:33:16.379Z,99.90
2017-11-03T00:35:42.769Z,99.90
2017-11-03T00:38:09.854Z,99.90
2017-11-03T00:40:36.204Z,99.90
2017-11-03T00:43:02.540Z,99.90
2017-11-03T00:45:28.890Z,99.90
2017-11-03T00:47:55.250Z,99.90
2017-11-03T00:50:21.630Z,99.90
2017-11-03T00:52:47.994Z,99.90
2017-11-03T00:55:15.087Z,99.90
2017-11-03T00:57:41.477Z,99.90
2017-11-03T01:00:07.866Z,99.90
2017-11-03T01:02:34.247Z,99.90
2017-11-03T01:05:00.575Z,99.90
2017-11-03T01:07:27.658Z,99.90
2017-11-03T01:09:54.367Z,99.90
2017-11-03T01:12:20.727Z,99.90
2017-11-03T01:14:47.093Z,99.90
2017-11-03T01:17:13.471Z,99.90
2017-11-03T01:19:39.824Z,99.90
2017-11-03T01:22:06.199Z,99.90
2017-11-03T01:24:33.282Z,99.90
2017-11-03T01:26:59.666Z,99.90
2017-11-03T01:29:26.030Z,99.90
2017-11-03T01:31:52.427Z,99.90
2017-11-03T01:34:25.745Z,99.90
2017-11-03T01:37:03.256Z,99.90
2017-11-03T01:39:29.666Z,99.90
2017-11-03T01:41:56.755Z,99.90
2017-11-03T01:44:23.114Z,99.90
2017-11-03T01:46:50.498Z,99.90
2017-11-03T01:49:16.850Z,99.90
2017-11-03T01:51:43.316Z,99.90
2017-11-03T01:54:10.487Z,99.90
2017-11-03T01:56:36.858Z,99.90
2017-11-03T01:59:03.226Z,99.90
2017-11-03T02:01:29.592Z,99.90
2017-11-03T02:03:56.127Z,99.90
2017-11-03T02:06:23.503Z,99.90
2017-11-03T02:08:49.867Z,99.90
2017-11-03T02:11:16.297Z,99.90
2017-11-03T02:13:42.652Z,99.90
2017-11-03T02:16:09.027Z,99.90
2017-11-03T02:18:36.145Z,99.90
2017-11-03T02:21:02.583Z,99.90
2017-11-03T02:23:28.975Z,99.90
2017-11-03T02:25:55.371Z,99.90
2017-11-03T02:28:22.459Z,99.90
2017-11-03T02:30:48.844Z,99.90
2017-11-03T02:33:15.970Z,99.90
2017-11-03T02:35:42.326Z,99.90
2017-11-03T02:38:09.450Z,99.90
2017-11-03T02:40:35.833Z,99.90
2017-11-03T02:43:02.190Z,99.90
2017-11-03T02:45:28.522Z,99.90
2017-11-03T02:47:54.884Z,99.90
2017-11-03T02:50:21.958Z,99.90
2017-11-03T02:52:48.286Z,99.90
2017-11-03T02:55:14.678Z,99.90
2017-11-03T02:57:41.038Z,99.90
2017-11-03T03:00:08.128Z,99.90
2017-11-03T03:02:34.467Z,99.90
2017-11-03T03:05:00.788Z,99.90
2017-11-03T03:07:27.162Z,99.90
2017-11-03T03:09:53.549Z,99.90
2017-11-03T03:12:20.632Z,99.90
2017-11-03T03:14:47.040Z,99.90
2017-11-03T03:17:13.877Z,99.90
2017-11-03T03:19:40.261Z,99.90
2017-11-03T03:22:07.358Z,99.90
2017-11-03T03:24:33.759Z,99.90
2017-11-03T03:27:00.170Z,99.90
2017-11-03T03:29:27.274Z,99.90
2017-11-03T03:31:53.687Z,99.90
2017-11-03T03:34:20.814Z,99.90
2017-11-03T03:36:47.171Z,99.90
2017-11-03T03:39:13.578Z,99.90
2017-11-03T03:41:39.969Z,99.90
2017-11-03T03:44:06.562Z,99.90
2017-11-03T03:46:32.975Z,99.90
2017-11-03T03:48:59.342Z,99.90
2017-11-03T03:51:25.712Z,99.90
2017-11-03T03:53:52.058Z,99.90
2017-11-03T03:56:19.182Z,99.90
2017-11-03T03:58:45.669Z,99.90
2017-11-03T04:01:14.207Z,99.90
2017-11-03T04:03:41.338Z,99.90
2017-11-03T04:06:07.686Z,99.90
2017-11-03T04:08:34.062Z,99.90
2017-11-03T04:11:00.478Z,99.90
2017-11-03T04:13:26.887Z,99.90
2017-11-03T04:15:53.987Z,99.90
2017-11-03T04:18:20.318Z,99.90
2017-11-03T04:20:46.714Z,99.90
2017-11-03T04:23:13.061Z,99.90
2017-11-03T04:25:39.446Z,99.90
2017-11-03T04:28:05.858Z,99.90
2017-11-03T04:30:33.206Z,99.90
2017-11-03T04:32:59.646Z,99.90
2017-11-03T04:35:27.058Z,99.90
2017-11-03T04:37:53.382Z,99.90
2017-11-03T04:40:20.126Z,99.90
2017-11-03T04:42:46.510Z,99.90
2017-11-03T04:45:12.891Z,99.90
2017-11-03T04:47:40.355Z,99.90
2017-11-03T04:50:06.738Z,99.90
2017-11-03T04:52:33.091Z,99.90
2017-11-03T04:55:00.216Z,99.90
2017-11-03T04:57:26.570Z,99.90
2017-11-03T04:59:53.645Z,99.90
2017-11-03T05:02:19.992Z,99.90
2017-11-03T05:04:46.346Z,99.90
2017-11-03T05:07:13.740Z,99.90
2017-11-03T05:09:41.882Z,99.90
2017-11-03T05:12:08.237Z,99.90
2017-11-03T05:14:35.309Z,99.90
2017-11-03T05:17:02.643Z,99.90
2017-11-03T05:19:29.750Z,99.90
2017-11-03T05:21:56.107Z,99.90
2017-11-03T05:24:22.577Z,99.90
2017-11-03T05:26:49.010Z,99.90
2017-11-03T05:29:15.331Z,99.90
2017-11-03T05:31:41.694Z,99.90
2017-11-03T05:34:08.034Z,99.90
2017-11-03T05:36:34.407Z,99.90
2017-11-03T05:39:01.535Z,99.90
2017-11-03T05:41:27.929Z,99.90
2017-11-03T05:43:54.301Z,99.90
2017-11-03T05:46:20.631Z,99.90
2017-11-03T05:48:47.052Z,99.90
2017-11-03T05:51:13.439Z,99.90
2017-11-03T05:53:39.829Z,99.90
2017-11-03T05:56:06.168Z,99.90
2017-11-03T05:58:33.253Z,99.90
2017-11-03T06:00:59.574Z,99.90
2017-11-03T06:03:25.916Z,99.90
2017-11-03T06:05:53.262Z,99.90
2017-11-03T06:08:19.699Z,99.90
2017-11-03T06:10:46.243Z,99.90
2017-11-03T06:13:12.638Z,99.90
2017-11-03T06:15:39.715Z,99.90
2017-11-03T06:18:06.108Z,99.90
2017-11-03T06:20:33.214Z,99.90
2017-11-03T06:23:00.579Z,99.90
2017-11-03T06:25:26.930Z,99.90
2017-11-03T06:27:53.354Z,99.90
2017-11-03T06:30:19.699Z,99.90
2017-11-03T06:32:46.079Z,99.90
2017-11-03T06:35:12.419Z,99.90
2017-11-03T06:37:38.768Z,99.90
2017-11-03T06:40:05.154Z,99.90
2017-11-03T06:42:31.514Z,99.90
2017-11-03T06:44:57.925Z,99.90
2017-11-03T06:47:24.322Z,99.90
2017-11-03T06:49:51.436Z,99.90
2017-11-03T06:52:17.791Z,99.90
2017-11-03T06:54:44.191Z,99.90
2017-11-03T06:57:10.582Z,99.90
2017-11-03T06:59:36.938Z,99.90
2017-11-03T07:02:03.366Z,99.90
2017-11-03T07:04:29.726Z,99.90
2017-11-03T07:06:56.106Z,99.90
2017-11-03T07:09:22.535Z,99.90
2017-11-03T07:11:49.691Z,99.90
2017-11-03T07:14:16.098Z,99.90
2017-11-03T07:16:42.459Z,99.90
2017-11-03T07:19:08.831Z,99.90
2017-11-03T07:21:35.183Z,99.90
2017-11-03T07:24:01.549Z,99.90
2017-11-03T07:26:27.908Z,99.90
2017-11-03T07:28:54.262Z,99.90
2017-11-03T07:31:20.593Z,99.90
2017-11-03T07:33:46.941Z,99.90
2017-11-03T07:36:13.282Z,99.90
2017-11-03T07:38:40.427Z,99.90
2017-11-03T07:41:07.520Z,99.90
2017-11-03T07:43:33.914Z,99.90
2017-11-03T07:46:01.004Z,99.90
2017-11-03T07:48:27.442Z,99.90
2017-11-03T07:50:53.772Z,99.90
2017-11-03T07:53:20.107Z,99.90
2017-11-03T07:55:46.499Z,99.90
2017-11-03T07:58:12.830Z,99.90
2017-11-03T08:00:39.190Z,99.90
2017-11-03T08:03:05.554Z,99.90
2017-11-03T08:05:32.909Z,99.90
2017-11-03T08:07:59.281Z,99.90
2017-11-03T08:10:25.643Z,99.90
2017-11-03T08:12:51.972Z,99.90
2017-11-03T08:15:18.323Z,99.90
2017-11-03T08:17:44.687Z,99.90
2017-11-03T08:20:11.768Z,99.90
2017-11-03T08:22:38.157Z,99.90
2017-11-03T08:25:05.240Z,99.90
2017-11-03T08:27:31.609Z,99.90
2017-11-03T08:29:57.926Z,99.90
2017-11-03T08:32:24.282Z,99.90
2017-11-03T08:34:50.611Z,99.90
2017-11-03T08:37:16.971Z,99.90
2017-11-03T08:39:44.057Z,99.90
2017-11-03T08:42:10.394Z,99.90
2017-11-03T08:44:36.742Z,99.90
2017-11-03T08:47:03.111Z,99.90
2017-11-03T08:49:30.192Z,99.90
2017-11-03T08:51:57.258Z,99.90
2017-11-03T08:54:23.638Z,99.90
2017-11-03T08:56:50.790Z,99.90
2017-11-03T08:59:17.873Z,99.90
2017-11-03T09:01:45.219Z,99.90
2017-11-03T09:04:11.559Z,99.90
2017-11-03T09:06:37.922Z,99.90
2017-11-03T09:09:04.311Z,99.90
2017-11-03T09:11:30.671Z,99.90
2017-11-03T09:13:57.038Z,99.90
2017-11-03T09:16:24.181Z,99.90
2017-11-03T09:18:51.282Z,99.90
2017-11-03T09:21:17.659Z,99.90
2017-11-03T09:23:44.775Z,99.90
2017-11-03T09:26:11.142Z,99.90
2017-11-03T09:28:38.250Z,99.90
2017-11-03T09:31:04.606Z,99.90
2017-11-03T09:33:30.978Z,99.90
2017-11-03T09:35:57.338Z,99.90
2017-11-03T09:38:23.702Z,99.90
2017-11-03T09:40:50.058Z,99.90
2017-11-03T09:43:17.173Z,99.90
2017-11-03T09:45:43.498Z,99.90
2017-11-03T09:48:09.870Z,99.90
2017-11-03T09:50:37.006Z,99.90
2017-11-03T09:53:04.111Z,99.90
2017-11-03T09:55:30.484Z,99.90
2017-11-03T09:57:57.572Z,99.90
2017-11-03T10:00:23.919Z,99.90
2017-11-03T10:02:50.294Z,99.90
2017-11-03T10:05:17.391Z,99.90
2017-11-03T10:07:43.739Z,99.90
2017-11-03T10:10:10.117Z,99.90
2017-11-03T10:12:37.238Z,99.90
2017-11-03T10:15:03.583Z,99.90
2017-11-03T10:17:30.687Z,99.90
2017-11-03T10:19:58.038Z,99.90
2017-11-03T10:22:24.390Z,99.90
2017-11-03T10:24:50.839Z,99.90
2017-11-03T10:27:17.194Z,99.90
2017-11-03T10:29:43.538Z,99.90
2017-11-03T10:32:10.939Z,99.90
2017-11-03T10:34:37.292Z,99.90
2017-11-03T10:37:04.380Z,99.90
2017-11-03T10:39:30.738Z,99.90
2017-11-03T10:41:57.075Z,99.90
2017-11-03T10:44:23.423Z,99.90
2017-11-03T10:46:49.782Z,99.90
2017-11-03T10:49:16.144Z,99.90
2017-11-03T10:51:42.520Z,99.90
2017-11-03T10:54:08.892Z,99.90
2017-11-03T10:56:35.267Z,99.90
2017-11-03T10:59:01.594Z,99.90
2017-11-03T11:01:27.959Z,99.90
2017-11-03T11:03:55.084Z,99.90
2017-11-03T11:06:21.446Z,99.90
2017-11-03T11:08:47.826Z,99.90
2017-11-03T11:11:14.158Z,99.90
2017-11-03T11:13:40.539Z,99.90
2017-11-03T11:16:06.882Z,99.90
2017-11-03T11:18:33.258Z,99.90
2017-11-03T11:21:00.623Z,99.90
2017-11-03T11:23:27.007Z,99.90
2017-11-03T11:25:53.349Z,99.90
2017-11-03T11:28:19.696Z,99.90
2017-11-03T11:30:46.091Z,99.90
2017-11-03T11:33:12.477Z,99.90
2017-11-03T11:35:38.834Z,99.90
2017-11-03T11:38:05.957Z,99.90
2017-11-03T11:40:32.339Z,99.90
2017-11-03T11:42:58.706Z,99.90
2017-11-03T11:45:25.121Z,99.90
2017-11-03T11:47:51.502Z,99.90
2017-11-03T11:50:18.627Z,99.90
2017-11-03T11:52:45.020Z,99.90
2017-11-03T11:55:12.153Z,99.90
2017-11-03T11:57:38.552Z,99.90
2017-11-03T12:00:04.943Z,99.90
2017-11-03T12:02:31.304Z,99.90
2017-11-03T12:05:01.270Z,99.90
2017-11-03T12:07:27.651Z,99.90
2017-11-03T12:09:54.031Z,99.90
2017-11-03T12:12:20.426Z,99.90
2017-11-03T12:14:46.787Z,99.90
2017-11-03T12:17:13.148Z,99.90
2017-11-03T12:19:40.538Z,99.90
2017-11-03T12:22:06.944Z,99.90
2017-11-03T12:24:33.310Z,99.90
2017-11-03T12:27:01.442Z,99.90
2017-11-03T12:29:27.853Z,99.90
2017-11-03T12:31:55.162Z,99.90
2017-11-03T12:34:22.287Z,99.90
2017-11-03T12:36:48.663Z,99.90
2017-11-03T12:39:15.063Z,99.90
2017-11-03T12:41:41.464Z,99.90
2017-11-03T12:44:07.849Z,99.90
2017-11-03T12:46:34.975Z,99.90
2017-11-03T12:49:01.350Z,99.90
2017-11-03T12:51:27.719Z,99.90
2017-11-03T12:53:54.175Z,99.90
2017-11-03T12:56:20.575Z,99.90
2017-11-03T12:58:46.948Z,99.90
2017-11-03T13:01:14.086Z,99.90
2017-11-03T13:03:40.481Z,99.90
2017-11-03T13:06:06.851Z,99.90
2017-11-03T13:08:33.246Z,99.90
2017-11-03T13:10:59.646Z,99.90
2017-11-03T13:13:26.042Z,99.90
2017-11-03T13:15:52.419Z,99.90
2017-11-03T13:18:18.806Z,99.90
2017-11-03T13:20:45.324Z,99.90
2017-11-03T13:23:11.710Z,99.90
2017-11-03T13:25:38.108Z,99.90
2017-11-03T13:28:04.547Z,99.90
2017-11-03T13:30:32.691Z,99.90
2017-11-03T13:32:59.108Z,99.90
2017-11-03T13:35:25.503Z,99.90
2017-11-03T13:37:51.862Z,99.90
2017-11-03T13:40:18.235Z,99.90
2017-11-03T13:42:44.620Z,99.90
2017-11-03T13:45:11.004Z,99.90
2017-11-03T13:47:37.355Z,99.90
2017-11-03T13:50:04.832Z,99.90
2017-11-03T13:52:31.214Z,99.90
2017-11-03T13:54:57.603Z,99.90
2017-11-03T13:57:23.958Z,99.90
2017-11-03T13:59:50.341Z,99.90
2017-11-03T14:02:16.686Z,99.90
2017-11-03T14:04:43.067Z,99.90
2017-11-03T14:07:09.439Z,99.90
2017-11-03T14:09:35.864Z,99.90
2017-11-03T14:12:02.975Z,99.90
2017-11-03T14:14:29.320Z,99.90
2017-11-03T14:16:55.648Z,99.90
2017-11-03T14:19:22.020Z,99.50
2017-11-03T14:21:48.370Z,97.90
2017-11-03T14:24:14.703Z,96.60
2017-11-03T14:26:41.098Z,96.00
2017-11-03T14:29:07.476Z,94.00
2017-11-03T14:31:33.838Z,93.60
2017-11-03T14:34:00.167Z,93.10
2017-11-03T14:36:27.253Z,92.60
2017-11-03T14:38:53.575Z,92.60
2017-11-03T14:41:19.922Z,91.80
2017-11-03T14:43:46.270Z,91.90
2017-11-03T14:46:12.639Z,91.50
2017-11-03T14:48:38.958Z,91.40
2017-11-03T14:51:05.306Z,90.70
2017-11-03T14:53:32.394Z,90.10
2017-11-03T14:55:58.746Z,90.10
2017-11-03T14:58:25.107Z,88.30
2017-11-03T15:00:51.435Z,87.70
2017-11-03T15:03:17.777Z,87.80
2017-11-03T15:05:44.877Z,86.70
2017-11-03T15:08:11.201Z,86.80
2017-11-03T15:10:37.534Z,86.70
2017-11-03T15:13:03.909Z,85.90
2017-11-03T15:15:30.238Z,86.30
2017-11-03T15:17:56.583Z,87.10
2017-11-03T15:20:23.639Z,90.40
2017-11-03T15:22:51.031Z,90.40
2017-11-03T15:25:17.396Z,91.50
2017-11-03T15:27:43.763Z,92.40
2017-11-03T15:30:10.132Z,93.50
2017-11-03T15:32:36.530Z,94.70
2017-11-03T15:35:02.921Z,95.50
2017-11-03T15:37:29.278Z,96.80
2017-11-03T15:39:55.630Z,97.80
2017-11-03T15:42:24.265Z,98.80
2017-11-03T15:44:52.611Z,99.80
2017-11-03T15:47:22.411Z,99.90
2017-11-03T15:49:51.065Z,99.90
2017-11-03T15:52:22.809Z,99.90
2017-11-03T15:54:50.309Z,99.90
2017-11-03T15:57:16.672Z,99.90
2017-11-03T15:59:43.078Z,99.90
2017-11-03T16:02:09.452Z,99.90
2017-11-03T16:04:36.558Z,99.90
2017-11-03T16:07:02.927Z,99.90
2017-11-03T16:09:29.995Z,99.90
2017-11-03T16:11:56.343Z,99.90
2017-11-03T16:14:22.683Z,99.90
2017-11-03T16:16:49.018Z,99.90
2017-11-03T16:19:15.426Z,99.90
2017-11-03T16:21:41.821Z,99.90
2017-11-03T16:24:08.145Z,99.90
2017-11-03T16:26:34.493Z,99.90
2017-11-03T16:29:01.605Z,99.90
2017-11-03T16:31:27.932Z,99.90
2017-11-03T16:33:54.323Z,99.90
2017-11-03T16:36:20.663Z,99.90
2017-11-03T16:38:47.019Z,99.90
2017-11-03T16:41:13.362Z,99.90
2017-11-03T16:43:39.746Z,99.90
2017-11-03T16:46:06.107Z,99.90
2017-11-03T16:48:32.481Z,99.90
2017-11-03T16:50:58.834Z,99.90
2017-11-03T16:53:25.935Z,99.90
2017-11-03T16:55:52.309Z,99.90
2017-11-03T16:58:19.431Z,99.90
2017-11-03T17:00:45.825Z,99.90
2017-11-03T17:03:13.219Z,99.90
2017-11-03T17:05:39.555Z,99.90
2017-11-03T17:08:05.895Z,99.90
2017-11-03T17:10:33.010Z,99.90
2017-11-03T17:13:00.451Z,99.90
2017-11-03T17:15:26.823Z,99.90
2017-11-03T17:17:53.323Z,99.90
2017-11-03T17:20:20.295Z,99.90
2017-11-03T17:22:47.641Z,99.90
2017-11-03T17:25:16.726Z,99.90
2017-11-03T17:27:44.583Z,99.90
2017-11-03T17:30:11.863Z,99.90
2017-11-03T17:32:38.239Z,99.90
2017-11-03T17:35:05.493Z,99.90
2017-11-03T17:37:32.573Z,99.90
2017-11-03T17:40:01.000Z,99.90
2017-11-03T17:42:29.838Z,99.90
2017-11-03T17:44:57.664Z,99.90
2017-11-03T17:47:24.042Z,99.90
2017-11-03T17:49:50.398Z,99.90
2017-11-03T17:52:16.771Z,99.90
2017-11-03T17:54:43.171Z,99.90
2017-11-03T17:57:10.234Z,99.90
2017-11-03T17:59:37.326Z,99.90
2017-11-03T18:02:04.703Z,99.90
2017-11-03T18:04:31.046Z,99.90
2017-11-03T18:06:57.418Z,99.90
2017-11-03T18:09:23.798Z,99.90
2017-11-03T18:11:50.139Z,99.90
2017-11-03T18:14:17.249Z,99.90
2017-11-03T18:16:43.588Z,99.90
2017-11-03T18:19:09.942Z,99.90
2017-11-03T18:21:36.303Z,99.90
2017-11-03T18:24:02.678Z,99.90
2017-11-03T18:26:29.023Z,99.90
2017-11-03T18:28:55.398Z,99.90
2017-11-03T18:31:21.763Z,99.90
2017-11-03T18:33:48.187Z,99.90
2017-11-03T18:36:18.110Z,99.90
2017-11-03T18:38:44.467Z,99.90
2017-11-03T18:41:12.096Z,99.90
2017-11-03T18:43:40.075Z,99.90
2017-11-03T18:46:08.353Z,99.90
2017-11-03T18:48:36.882Z,99.90
2017-11-03T18:51:03.942Z,99.90
2017-11-03T18:53:30.338Z,99.90
2017-11-03T18:55:56.666Z,99.90
2017-11-03T18:58:23.010Z,99.90
2017-11-03T19:00:51.302Z,99.90
2017-11-03T19:03:19.474Z,99.90
2017-11-03T19:05:47.612Z,99.90
2017-11-03T19:08:16.275Z,99.90
2017-11-03T19:10:43.261Z,99.90
2017-11-03T19:13:12.401Z,99.90
2017-11-03T19:15:41.164Z,99.90
2017-11-03T19:18:07.555Z,99.90
2017-11-03T19:20:34.865Z,99.90
2017-11-03T19:23:03.496Z,99.90
2017-11-03T19:25:34.229Z,99.90
2017-11-03T19:28:02.047Z,99.90
2017-11-03T19:30:29.824Z,99.90
2017-11-03T19:32:57.651Z,99.90
2017-11-03T19:35:25.455Z,99.90
2017-11-03T19:37:56.647Z,99.90
2017-11-03T19:40:23.723Z,99.90
2017-11-03T19:42:50.082Z,99.90
2017-11-03T19:45:16.417Z,99.90
2017-11-03T19:47:42.738Z,99.90
2017-11-03T19:50:09.061Z,99.90
2017-11-03T19:52:35.411Z,99.90
2017-11-03T19:55:01.735Z,99.90
2017-11-03T19:57:28.067Z,99.90
2017-11-03T19:59:54.422Z,99.90
2017-11-03T20:02:20.746Z,99.90
2017-11-03T20:04:47.103Z,99.90
2017-11-03T20:07:14.154Z,99.90
2017-11-03T20:09:41.247Z,99.90
2017-11-03T20:12:07.594Z,99.90
2017-11-03T20:14:33.918Z,99.90
2017-11-03T20:17:00.234Z,99.90
2017-11-03T20:19:26.587Z,99.90
2017-11-03T20:21:52.935Z,99.90
2017-11-03T20:24:19.281Z,99.90
2017-11-03T20:26:46.382Z,99.90
2017-11-03T20:29:12.718Z,99.90
2017-11-03T20:31:39.050Z,99.90
2017-11-03T20:34:05.416Z,99.90
2017-11-03T20:36:32.520Z,99.90
2017-11-03T20:38:58.864Z,99.90
2017-11-03T20:41:25.367Z,99.90
2017-11-03T20:43:52.619Z,99.90
2017-11-03T20:46:19.378Z,99.90
2017-11-03T20:48:45.704Z,99.90
2017-11-03T20:51:12.052Z,99.90
2017-11-03T20:53:38.374Z,99.90
2017-11-03T20:56:05.614Z,99.90
2017-11-03T20:58:32.862Z,99.90
2017-11-03T21:00:59.219Z,99.90
2017-11-03T21:03:25.556Z,99.90
2017-11-03T21:05:51.923Z,99.90
2017-11-03T21:08:19.882Z,99.90
2017-11-03T21:10:47.022Z,99.90
2017-11-03T21:13:13.358Z,99.90
2017-11-03T21:15:41.459Z,99.90
2017-11-03T21:18:07.791Z,99.90
2017-11-03T21:20:34.172Z,99.90
2017-11-03T21:23:00.511Z,99.90
2017-11-03T21:25:26.842Z,99.90
2017-11-03T21:27:53.190Z,99.90
2017-11-03T21:30:20.264Z,99.90
2017-11-03T21:32:46.619Z,99.90
2017-11-03T21:35:12.977Z,99.90
2017-11-03T21:37:39.305Z,99.90
2017-11-03T21:40:05.650Z,99.90
2017-11-03T21:42:32.758Z,99.90
2017-11-03T21:44:59.089Z,99.90
2017-11-03T21:47:25.419Z,99.90
2017-11-03T21:49:51.807Z,99.90
2017-11-03T21:52:18.143Z,99.90
2017-11-03T21:54:44.507Z,99.90
2017-11-03T21:57:10.831Z,99.90
2017-11-03T21:59:37.175Z,99.90
2017-11-03T22:02:03.556Z,99.90
2017-11-03T22:04:30.674Z,99.90
2017-11-03T22:06:57.028Z,99.90
2017-11-03T22:09:24.110Z,99.90
2017-11-03T22:11:50.435Z,99.90
2017-11-03T22:14:16.783Z,99.90
2017-11-03T22:16:43.110Z,99.90
2017-11-03T22:19:09.430Z,99.90
2017-11-03T22:21:35.778Z,99.90
2017-11-03T22:24:02.107Z,99.90
2017-11-03T22:26:28.430Z,99.90
2017-11-03T22:28:54.787Z,99.90
2017-11-03T22:31:21.124Z,99.90
2017-11-03T22:33:47.446Z,99.90
2017-11-03T22:36:14.791Z,99.90
2017-11-03T22:38:41.202Z,99.90
2017-11-03T22:41:07.542Z,99.90
2017-11-03T22:43:33.877Z,99.90
2017-11-03T22:46:00.238Z,99.90
2017-11-03T22:48:26.607Z,99.90
2017-11-03T22:50:52.958Z,99.90
2017-11-03T22:53:19.280Z,99.90
2017-11-03T22:55:45.640Z,99.90
2017-11-03T22:58:11.960Z,99.90
2017-11-03T23:00:38.326Z,99.90
2017-11-03T23:03:05.406Z,99.90
2017-11-03T23:05:31.783Z,99.90
2017-11-03T23:07:58.102Z,99.90
2017-11-03T23:10:24.414Z,99.90
2017-11-03T23:12:50.764Z,99.90
2017-11-03T23:15:17.093Z,99.90
2017-11-03T23:17:43.442Z,99.90
2017-11-03T23:20:09.809Z,99.90
2017-11-03T23:22:36.144Z,99.90
2017-11-03T23:25:02.572Z,99.90
2017-11-03T23:27:28.898Z,99.90
2017-11-03T23:29:55.988Z,99.90
2017-11-03T23:32:22.343Z,99.90
2017-11-03T23:34:48.684Z,99.90
2017-11-03T23:37:15.015Z,99.90
2017-11-03T23:39:42.135Z,99.90
2017-11-03T23:42:08.501Z,99.90
2017-11-03T23:44:35.591Z,99.90
2017-11-03T23:47:01.928Z,99.90
2017-11-03T23:49:28.266Z,99.90
2017-11-03T23:51:54.999Z,99.90
2017-11-03T23:54:21.321Z,99.90
2017-11-03T23:56:47.675Z,99.90
2017-11-03T23:59:14.033Z,99.90
